Time;durP1;ratioP1;P1;durP2;ratioP2;P2;SDS_P1;SDS_P2;PMS_P1;PMS_P2;Temp;Humidity;BMP_temperature;BMP_pressure;BME280_temperature;BME280_humidity;BME280_pressure;Samples;Min_cycle;Max_cycle;Signal;HPM_P1;HPM_P2
2021/08/28 00:01:30;;;;;;;2.70;2.47;;;15.60;99.90;;;;;;5037646;28;20460;-52
2021/08/28 00:03:57;;;;;;;2.43;2.00;;;15.60;99.90;;;;;;5037747;28;20440;-49
2021/08/28 00:06:24;;;;;;;5.00;2.90;;;15.60;99.90;;;;;;5037243;28;20937;-52
2021/08/28 00:08:50;;;;;;;2.30;1.90;;;15.60;99.90;;;;;;5037619;28;20506;-51
2021/08/28 00:11:17;;;;;;;4.47;2.50;;;15.60;99.90;;;;;;5037426;28;20452;-49
2021/08/28 00:13:45;;;;;;;3.03;2.30;;;15.60;99.90;;;;;;5037187;28;20444;-48
2021/08/28 00:16:13;;;;;;;3.60;2.43;;;15.60;99.90;;;;;;5037569;28;20451;-49
2021/08/28 00:18:40;;;;;;;2.80;2.50;;;15.60;99.90;;;;;;5037116;28;20452;-51
2021/08/28 00:21:07;;;;;;;2.43;2.23;;;15.70;99.90;;;;;;5037305;28;20452;-49
2021/08/28 00:23:34;;;;;;;2.70;2.23;;;15.60;99.90;;;;;;5037368;28;20440;-50
2021/08/28 00:26:01;;;;;;;2.30;2.00;;;15.60;99.90;;;;;;5036904;28;20479;-51
2021/08/28 00:28:28;;;;;;;3.70;3.03;;;15.60;99.90;;;;;;5037310;28;20541;-48
2021/08/28 00:30:55;;;;;;;3.00;2.40;;;15.60;99.90;;;;;;5036904;28;20530;-48
2021/08/28 00:33:23;;;;;;;4.73;2.80;;;15.60;99.90;;;;;;5037200;28;20456;-48
2021/08/28 00:35:50;;;;;;;3.80;2.73;;;15.60;99.90;;;;;;5037156;28;20508;-50
2021/08/28 00:38:17;;;;;;;3.50;2.90;;;15.60;99.90;;;;;;5037240;28;20547;-48
2021/08/28 00:40:43;;;;;;;6.47;3.00;;;15.60;99.90;;;;;;5037071;28;20439;-48
2021/08/28 00:43:10;;;;;;;3.17;2.87;;;15.60;99.90;;;;;;5036870;28;20517;-50
2021/08/28 00:45:37;;;;;;;2.67;2.37;;;15.60;99.90;;;;;;5036905;28;20452;-50
2021/08/28 00:48:06;;;;;;;3.67;2.60;;;15.60;99.90;;;;;;5036506;28;20476;-50
2021/08/28 00:50:35;;;;;;;4.77;3.13;;;15.60;99.90;;;;;;5036782;28;20777;-47
2021/08/28 00:53:03;;;;;;;5.70;3.00;;;15.60;99.90;;;;;;5036505;28;20889;-45
2021/08/28 00:55:31;;;;;;;4.73;2.77;;;15.60;99.90;;;;;;5036676;28;20448;-48
2021/08/28 00:57:59;;;;;;;5.53;3.30;;;15.60;99.90;;;;;;5036494;28;20867;-47
2021/08/28 01:00:26;;;;;;;7.30;4.10;;;15.60;99.90;;;;;;5036332;28;20460;-47
2021/08/28 01:02:54;;;;;;;3.13;2.60;;;15.60;99.90;;;;;;5036714;28;20976;-46
2021/08/28 01:05:26;;;;;;;3.60;2.60;;;15.60;99.90;;;;;;5036266;28;20917;-46
2021/08/28 01:08:00;;;;;;;4.53;3.07;;;15.60;99.90;;;;;;5036234;28;20964;-52
2021/08/28 01:10:34;;;;;;;3.03;2.73;;;15.60;99.90;;;;;;5036508;28;20513;-45
2021/08/28 01:13:03;;;;;;;3.47;2.93;;;15.60;99.90;;;;;;5036138;28;20452;-50
2021/08/28 01:15:30;;;;;;;3.80;3.33;;;15.60;99.90;;;;;;5036074;28;20920;-49
2021/08/28 01:17:58;;;;;;;3.43;2.90;;;15.60;99.90;;;;;;5036321;28;20518;-52
2021/08/28 01:20:36;;;;;;;3.10;2.90;;;15.60;99.90;;;;;;5036098;28;20464;-50
2021/08/28 01:23:05;;;;;;;4.10;3.57;;;15.60;99.90;;;;;;5036294;28;20795;-45
2021/08/28 01:25:32;;;;;;;4.47;3.60;;;15.60;99.90;;;;;;5035798;28;20537;-49
2021/08/28 01:28:03;;;;;;;5.27;3.67;;;15.60;99.90;;;;;;5036000;28;20476;-50
2021/08/28 01:30:31;;;;;;;4.67;4.10;;;15.50;99.90;;;;;;5036162;28;20428;-48
2021/08/28 01:32:58;;;;;;;4.73;4.33;;;15.50;99.90;;;;;;5035859;28;20444;-49
2021/08/28 01:35:25;;;;;;;4.17;3.77;;;15.50;99.90;;;;;;5036581;28;20847;-52
2021/08/28 01:37:54;;;;;;;6.60;4.40;;;15.50;99.90;;;;;;5035705;28;20447;-48
2021/08/28 01:40:22;;;;;;;5.43;3.80;;;15.50;99.90;;;;;;5035464;28;20460;-49
2021/08/28 01:42:49;;;;;;;6.80;4.53;;;15.50;99.90;;;;;;5035848;28;20460;-48
2021/08/28 01:45:17;;;;;;;5.30;4.07;;;15.50;99.90;;;;;;5035633;28;20448;-49
2021/08/28 01:47:46;;;;;;;3.80;3.37;;;15.50;99.90;;;;;;5035720;28;20527;-46
2021/08/28 01:50:20;;;;;;;6.40;4.53;;;15.50;99.90;;;;;;5035034;28;20513;-49
2021/08/28 01:52:47;;;;;;;4.13;3.73;;;15.40;99.90;;;;;;5054937;28;20581;-53
2021/08/28 01:55:14;;;;;;;5.90;4.17;;;15.40;99.90;;;;;;5055507;28;20820;-49
2021/08/28 01:57:40;;;;;;;4.17;3.77;;;15.40;99.90;;;;;;5055377;28;20439;-52
2021/08/28 02:00:08;;;;;;;5.43;3.97;;;15.40;99.90;;;;;;5055509;28;20455;-51
2021/08/28 02:02:34;;;;;;;4.40;4.00;;;15.40;99.90;;;;;;5055175;28;20451;-49
2021/08/28 02:05:04;;;;;;;4.90;4.00;;;15.40;99.90;;;;;;5052043;28;20435;-53
2021/08/28 02:07:39;;;;;;;4.40;4.00;;;15.40;99.90;;;;;;5055269;28;20471;-50
2021/08/28 02:10:13;;;;;;;4.60;4.20;;;15.40;99.90;;;;;;5054523;28;20458;-54
2021/08/28 02:12:42;;;;;;;5.80;5.00;;;15.40;99.90;;;;;;5055206;28;20427;-49
2021/08/28 02:15:12;;;;;;;6.57;5.37;;;15.50;99.90;;;;;;5054923;28;20443;-52
2021/08/28 02:17:43;;;;;;;6.20;5.03;;;15.40;99.90;;;;;;5055071;28;20467;-47
2021/08/28 02:20:15;;;;;;;7.60;5.10;;;15.50;99.90;;;;;;5055176;28;20431;-45
2021/08/28 02:22:46;;;;;;;5.07;4.57;;;15.50;99.90;;;;;;5054902;28;20454;-46
2021/08/28 02:25:21;;;;;;;5.17;4.47;;;15.50;99.90;;;;;;5054797;28;20962;-46
2021/08/28 02:27:51;;;;;;;5.20;4.70;;;15.50;99.90;;;;;;5054757;28;20474;-50
2021/08/28 02:30:20;;;;;;;7.00;5.60;;;15.40;99.90;;;;;;5054787;28;20447;-46
2021/08/28 02:32:49;;;;;;;5.60;4.97;;;15.40;99.90;;;;;;5054885;28;20589;-47
2021/08/28 02:35:18;;;;;;;6.60;4.60;;;15.40;99.90;;;;;;5054656;28;20763;-50
2021/08/28 02:37:46;;;;;;;6.60;5.57;;;15.40;99.90;;;;;;5051077;28;20436;-53
2021/08/28 02:40:15;;;;;;;4.93;4.53;;;15.40;99.90;;;;;;5052548;28;20768;-48
2021/08/28 02:42:44;;;;;;;4.90;4.50;;;15.40;99.90;;;;;;5054582;28;20486;-50
2021/08/28 02:45:15;;;;;;;5.80;5.20;;;15.40;99.90;;;;;;5045772;28;20554;-48
2021/08/28 02:47:43;;;;;;;7.10;5.00;;;15.40;99.90;;;;;;5045796;28;20898;-47
2021/08/28 02:50:13;;;;;;;5.87;5.17;;;15.30;99.90;;;;;;5044427;28;20463;-47
2021/08/28 02:52:43;;;;;;;5.80;4.53;;;15.40;99.90;;;;;;5054381;28;20513;-51
2021/08/28 02:55:11;;;;;;;6.90;5.70;;;15.40;99.90;;;;;;5051183;28;20756;-50
2021/08/28 02:57:39;;;;;;;7.07;6.37;;;15.30;99.90;;;;;;5045808;28;20489;-46
2021/08/28 03:00:07;;;;;;;6.13;5.00;;;15.30;99.90;;;;;;5044911;28;20482;-51
2021/08/28 03:02:34;;;;;;;6.10;5.30;;;15.30;99.90;;;;;;5046403;28;21101;-49
2021/08/28 03:05:01;;;;;;;6.30;5.70;;;15.20;99.90;;;;;;5055028;28;20970;-48
2021/08/28 03:07:28;;;;;;;6.10;5.50;;;15.20;99.90;;;;;;5054255;28;20483;-51
2021/08/28 03:09:58;;;;;;;6.57;5.63;;;15.20;99.90;;;;;;5054897;28;20443;-47
2021/08/28 03:12:24;;;;;;;9.07;6.87;;;15.20;99.90;;;;;;5054911;28;20439;-51
2021/08/28 03:14:52;;;;;;;7.40;6.50;;;15.20;99.90;;;;;;5054625;28;20447;-52
2021/08/28 03:17:20;;;;;;;7.27;6.00;;;15.20;99.90;;;;;;5054642;28;20467;-52
2021/08/28 03:19:48;;;;;;;13.10;6.20;;;15.20;99.90;;;;;;5054954;28;20481;-49
2021/08/28 03:22:19;;;;;;;7.57;6.20;;;15.20;99.90;;;;;;5052846;28;20513;-51
2021/08/28 03:24:48;;;;;;;8.47;6.57;;;15.10;99.90;;;;;;5054966;28;20815;-47
2021/08/28 03:27:17;;;;;;;10.33;6.30;;;15.10;99.90;;;;;;5035020;28;20797;-47
2021/08/28 03:29:46;;;;;;;9.47;5.70;;;15.10;99.90;;;;;;5034421;28;20514;-48
2021/08/28 03:32:14;;;;;;;6.50;5.63;;;15.10;99.90;;;;;;5034808;28;20518;-52
2021/08/28 03:34:41;;;;;;;7.90;6.53;;;15.10;99.90;;;;;;5035022;28;20851;-50
2021/08/28 03:37:09;;;;;;;8.37;6.30;;;15.10;99.90;;;;;;5034851;28;20521;-50
2021/08/28 03:39:37;;;;;;;7.47;5.97;;;15.10;99.90;;;;;;5034848;28;20452;-50
2021/08/28 03:42:04;;;;;;;9.13;6.33;;;15.10;99.90;;;;;;5034434;28;20579;-47
2021/08/28 03:44:38;;;;;;;7.07;6.37;;;15.10;99.90;;;;;;5018870;28;20488;-49
2021/08/28 03:47:04;;;;;;;7.27;6.37;;;15.00;99.90;;;;;;5014265;28;20987;-52
2021/08/28 03:49:31;;;;;;;9.50;6.17;;;15.10;99.90;;;;;;5013743;28;21055;-53
2021/08/28 03:51:58;;;;;;;7.20;6.50;;;15.10;99.90;;;;;;5014024;28;20449;-49
2021/08/28 03:54:25;;;;;;;9.93;6.57;;;15.10;99.90;;;;;;5014534;28;20453;-52
2021/08/28 03:56:51;;;;;;;7.90;7.10;;;15.10;99.90;;;;;;5014790;28;20453;-51
2021/08/28 03:59:18;;;;;;;8.00;6.90;;;15.10;99.90;;;;;;5015259;28;20511;-46
2021/08/28 04:01:47;;;;;;;10.00;6.33;;;15.10;99.90;;;;;;5016348;28;20538;-41
2021/08/28 04:04:14;;;;;;;9.40;6.97;;;15.10;99.90;;;;;;5016398;28;20476;-41
2021/08/28 04:06:40;;;;;;;9.10;7.13;;;15.20;99.90;;;;;;5015962;28;20499;-44
2021/08/28 04:09:07;;;;;;;9.70;7.13;;;15.20;99.90;;;;;;5015915;28;20511;-42
2021/08/28 04:11:34;;;;;;;12.10;6.70;;;15.20;99.90;;;;;;5016080;28;20453;-42
2021/08/28 04:14:00;;;;;;;9.57;6.60;;;15.20;99.90;;;;;;5015953;28;20445;-42
2021/08/28 04:16:27;;;;;;;7.80;6.97;;;15.20;99.90;;;;;;5015835;28;20487;-41
2021/08/28 04:18:55;;;;;;;8.17;5.80;;;15.20;99.90;;;;;;5016207;28;20833;-47
2021/08/28 04:21:22;;;;;;;7.63;6.47;;;15.30;99.90;;;;;;5015880;28;20448;-44
2021/08/28 04:23:49;;;;;;;8.53;6.70;;;15.30;99.90;;;;;;5016089;28;20483;-42
2021/08/28 04:26:16;;;;;;;7.37;6.67;;;15.30;99.90;;;;;;5027367;28;20972;-44
2021/08/28 04:28:43;;;;;;;9.47;6.47;;;15.30;99.90;;;;;;5036037;28;20487;-44
2021/08/28 04:31:09;;;;;;;6.03;5.43;;;15.30;99.90;;;;;;5036022;28;20893;-44
2021/08/28 04:33:36;;;;;;;8.30;6.40;;;15.30;99.90;;;;;;5036607;28;20443;-44
2021/08/28 04:36:04;;;;;;;8.50;6.37;;;15.30;99.90;;;;;;5038870;28;20506;-44
2021/08/28 04:38:31;;;;;;;7.20;6.43;;;15.30;99.90;;;;;;5039302;28;20822;-46
2021/08/28 04:40:58;;;;;;;7.13;5.57;;;15.30;99.90;;;;;;5038957;28;20462;-48
2021/08/28 04:43:25;;;;;;;7.57;5.57;;;15.30;99.90;;;;;;5038968;28;20497;-46
2021/08/28 04:45:51;;;;;;;9.27;6.07;;;15.30;99.90;;;;;;5039599;28;20456;-45
2021/08/28 04:48:18;;;;;;;7.87;6.57;;;15.30;99.90;;;;;;5039063;28;20719;-43
2021/08/28 04:50:45;;;;;;;7.97;7.27;;;15.30;99.90;;;;;;5039814;28;20517;-44
2021/08/28 04:53:13;;;;;;;6.83;5.20;;;15.30;99.90;;;;;;5039307;28;20471;-42
2021/08/28 04:55:40;;;;;;;7.70;5.97;;;15.30;99.90;;;;;;5039333;28;20475;-50
2021/08/28 04:58:06;;;;;;;8.30;6.77;;;15.30;99.90;;;;;;5038408;28;20897;-44
2021/08/28 05:00:33;;;;;;;9.37;6.80;;;15.30;99.90;;;;;;5038459;28;20458;-48
2021/08/28 05:03:00;;;;;;;8.17;6.60;;;15.40;99.90;;;;;;5038312;28;20444;-48
2021/08/28 05:05:26;;;;;;;7.40;5.73;;;15.40;99.90;;;;;;5038882;28;20471;-47
2021/08/28 05:07:53;;;;;;;9.00;5.97;;;15.40;99.90;;;;;;5038053;28;20806;-42
2021/08/28 05:10:22;;;;;;;7.60;6.00;;;15.40;99.90;;;;;;5038161;28;20448;-44
2021/08/28 05:12:49;;;;;;;8.70;6.13;;;15.50;99.90;;;;;;5037983;28;20448;-42
2021/08/28 05:15:15;;;;;;;7.13;5.73;;;15.50;99.90;;;;;;5038451;28;20765;-43
2021/08/28 05:17:42;;;;;;;9.53;5.43;;;15.50;99.90;;;;;;5038064;28;20436;-42
2021/08/28 05:20:09;;;;;;;8.60;5.67;;;15.60;99.90;;;;;;5038333;28;20578;-41
2021/08/28 05:22:36;;;;;;;7.97;6.63;;;15.60;99.90;;;;;;5038210;28;20494;-43
2021/08/28 05:25:04;;;;;;;9.83;6.67;;;15.60;99.90;;;;;;5038054;28;20498;-43
2021/08/28 05:27:32;;;;;;;8.17;6.90;;;15.60;99.90;;;;;;5038534;28;20494;-49
2021/08/28 05:29:58;;;;;;;7.10;5.63;;;15.60;99.90;;;;;;5037603;28;20480;-46
2021/08/28 05:32:25;;;;;;;7.20;5.90;;;15.60;99.90;;;;;;5038252;28;20452;-42
2021/08/28 05:34:54;;;;;;;6.90;5.70;;;15.60;99.90;;;;;;5037307;28;20474;-42
2021/08/28 05:37:21;;;;;;;6.33;5.60;;;15.50;99.90;;;;;;5037834;28;20510;-41
2021/08/28 05:39:48;;;;;;;8.67;6.60;;;15.50;99.90;;;;;;5038093;28;20510;-42
2021/08/28 05:42:15;;;;;;;9.30;6.80;;;15.40;99.90;;;;;;5038337;28;20829;-42
2021/08/28 05:44:43;;;;;;;6.63;5.33;;;15.40;99.90;;;;;;5037028;28;20510;-47
2021/08/28 05:47:09;;;;;;;8.17;5.30;;;15.30;99.90;;;;;;5037923;28;20517;-42
2021/08/28 05:49:36;;;;;;;6.73;5.47;;;15.30;99.90;;;;;;5038141;28;20484;-45
2021/08/28 05:52:03;;;;;;;6.73;5.53;;;15.20;99.90;;;;;;5037537;28;20454;-45
2021/08/28 05:54:29;;;;;;;8.60;5.60;;;15.20;99.90;;;;;;5037685;28;20929;-44
2021/08/28 05:56:56;;;;;;;7.33;5.60;;;15.20;99.90;;;;;;5037420;28;20955;-43
2021/08/28 05:59:23;;;;;;;7.83;5.27;;;15.10;99.90;;;;;;5037335;28;20514;-44
2021/08/28 06:01:52;;;;;;;7.83;5.30;;;15.20;99.90;;;;;;5037783;28;20503;-46
2021/08/28 06:04:19;;;;;;;8.50;5.77;;;15.20;99.90;;;;;;5037425;28;20458;-47
2021/08/28 06:06:46;;;;;;;5.47;4.67;;;15.20;99.90;;;;;;5037054;28;20913;-43
2021/08/28 06:09:12;;;;;;;7.40;5.73;;;15.20;99.90;;;;;;5037008;28;20480;-45
2021/08/28 06:11:39;;;;;;;7.03;5.20;;;15.20;99.90;;;;;;5037061;28;20452;-44
2021/08/28 06:14:06;;;;;;;8.83;5.00;;;15.20;99.90;;;;;;5037206;28;20436;-42
2021/08/28 06:16:32;;;;;;;8.07;5.50;;;15.20;99.90;;;;;;5038229;28;20444;-42
2021/08/28 06:19:00;;;;;;;7.03;4.70;;;15.30;99.90;;;;;;5037173;28;20508;-45
2021/08/28 06:21:27;;;;;;;6.27;4.70;;;15.30;99.90;;;;;;5037300;28;20443;-48
2021/08/28 06:23:54;;;;;;;7.50;5.60;;;15.30;99.90;;;;;;5037275;28;20509;-48
2021/08/28 06:26:21;;;;;;;7.17;5.90;;;15.40;99.90;;;;;;5036964;28;20476;-43
2021/08/28 06:28:47;;;;;;;8.13;5.60;;;15.40;99.90;;;;;;5037359;28;20476;-42
2021/08/28 06:31:14;;;;;;;6.80;4.60;;;15.40;99.90;;;;;;5037586;28;20448;-44
2021/08/28 06:33:41;;;;;;;5.10;4.60;;;15.40;99.90;;;;;;5037420;28;20429;-47
2021/08/28 06:36:09;;;;;;;5.93;4.67;;;15.40;99.90;;;;;;5036557;28;20539;-46
2021/08/28 06:38:36;;;;;;;5.90;4.53;;;15.40;99.90;;;;;;5037154;28;20444;-47
2021/08/28 06:41:03;;;;;;;5.50;3.90;;;15.40;99.90;;;;;;5037251;28;20506;-43
2021/08/28 06:43:30;;;;;;;4.07;3.47;;;15.40;99.90;;;;;;5037270;28;20444;-42
2021/08/28 06:45:57;;;;;;;5.10;3.90;;;15.40;99.90;;;;;;5036686;28;20514;-44
2021/08/28 06:48:23;;;;;;;7.10;4.40;;;15.40;99.90;;;;;;5036334;28;20494;-44
2021/08/28 06:50:50;;;;;;;4.70;4.20;;;15.40;99.90;;;;;;5036873;28;20941;-47
2021/08/28 06:53:18;;;;;;;4.80;4.10;;;15.50;99.90;;;;;;5036392;28;20448;-42
2021/08/28 06:55:45;;;;;;;5.40;4.10;;;15.60;99.90;;;;;;5037029;28;20940;-45
2021/08/28 06:58:12;;;;;;;5.17;3.40;;;15.60;99.90;;;;;;5036865;28;20444;-42
2021/08/28 07:00:38;;;;;;;6.60;4.40;;;15.60;99.90;;;;;;5036435;28;20444;-42
2021/08/28 07:03:05;;;;;;;5.70;4.83;;;15.60;99.90;;;;;;5036344;28;20502;-45
2021/08/28 07:05:32;;;;;;;25.67;17.53;;;15.70;99.90;;;;;;5036625;28;20444;-45
2021/08/28 07:07:59;;;;;;;4.77;3.63;;;15.70;99.90;;;;;;5036292;28;20510;-43
2021/08/28 07:10:27;;;;;;;4.70;3.67;;;15.70;99.90;;;;;;5035955;28;20510;-43
2021/08/28 07:12:54;;;;;;;5.37;3.50;;;15.60;99.90;;;;;;5036536;28;20448;-43
2021/08/28 07:15:21;;;;;;;3.80;3.40;;;15.60;99.90;;;;;;5036214;28;20448;-45
2021/08/28 07:17:47;;;;;;;5.20;3.73;;;15.70;99.90;;;;;;5035731;28;20471;-43
2021/08/28 07:20:14;;;;;;;5.53;4.07;;;15.70;99.90;;;;;;5036298;28;20463;-45
2021/08/28 07:22:41;;;;;;;4.93;3.37;;;15.70;99.90;;;;;;5035980;28;20448;-42
2021/08/28 07:25:10;;;;;;;3.70;3.17;;;15.80;99.90;;;;;;5036203;28;20460;-44
2021/08/28 07:27:38;;;;;;;4.70;3.97;;;15.80;99.90;;;;;;5035957;28;20448;-46
2021/08/28 07:30:06;;;;;;;5.23;4.60;;;15.80;99.90;;;;;;5036008;28;20483;-45
2021/08/28 07:32:32;;;;;;;6.47;4.70;;;15.80;99.90;;;;;;5035908;28;20455;-44
2021/08/28 07:34:59;;;;;;;4.50;3.70;;;15.90;99.90;;;;;;5035822;28;20452;-48
2021/08/28 07:37:26;;;;;;;4.17;3.40;;;15.90;99.90;;;;;;5035629;28;20478;-46
2021/08/28 07:39:52;;;;;;;3.83;3.10;;;15.90;99.90;;;;;;5036036;28;20453;-48
2021/08/28 07:42:19;;;;;;;4.33;2.93;;;15.90;99.90;;;;;;5035658;28;20551;-42
2021/08/28 07:44:47;;;;;;;3.73;3.10;;;15.90;99.90;;;;;;5035716;28;20451;-43
2021/08/28 07:47:14;;;;;;;4.83;3.43;;;16.00;99.90;;;;;;5035857;28;20905;-45
2021/08/28 07:49:40;;;;;;;4.27;3.70;;;15.90;99.90;;;;;;5035816;28;20484;-43
2021/08/28 07:52:08;;;;;;;3.73;3.23;;;16.00;99.90;;;;;;5035628;28;20444;-46
2021/08/28 07:54:34;;;;;;;4.97;3.77;;;16.00;99.90;;;;;;5035699;28;20461;-41
2021/08/28 07:57:02;;;;;;;4.83;3.67;;;16.10;99.90;;;;;;5035775;28;20452;-42
2021/08/28 07:59:29;;;;;;;3.87;3.13;;;16.10;99.90;;;;;;5035857;28;20470;-45
2021/08/28 08:01:57;;;;;;;4.80;4.07;;;16.20;99.90;;;;;;5035959;28;20513;-45
2021/08/28 08:04:23;;;;;;;4.20;3.47;;;16.20;99.90;;;;;;5035664;28;20456;-44
2021/08/28 08:06:50;;;;;;;4.67;3.67;;;16.20;99.90;;;;;;5036139;28;20440;-48
2021/08/28 08:09:17;;;;;;;6.50;3.63;;;16.20;99.90;;;;;;5037741;28;20484;-41
2021/08/28 08:11:43;;;;;;;4.77;3.60;;;16.20;99.90;;;;;;5039674;28;20510;-45
2021/08/28 08:14:10;;;;;;;4.10;3.60;;;16.20;99.90;;;;;;5039965;28;20524;-43
2021/08/28 08:16:37;;;;;;;8.90;3.50;;;16.20;99.90;;;;;;5039583;28;20513;-42
2021/08/28 08:19:06;;;;;;;4.83;3.50;;;16.20;99.90;;;;;;5039317;28;20517;-42
2021/08/28 08:21:33;;;;;;;4.77;3.53;;;16.30;99.90;;;;;;5038948;28;20455;-46
2021/08/28 08:23:59;;;;;;;3.37;3.07;;;16.30;99.90;;;;;;5039116;28;20911;-44
2021/08/28 08:26:26;;;;;;;6.90;4.60;;;16.40;99.90;;;;;;5038481;28;20476;-41
2021/08/28 08:28:54;;;;;;;4.47;2.90;;;16.40;99.90;;;;;;5038839;28;20517;-44
2021/08/28 08:31:21;;;;;;;4.30;3.60;;;16.40;99.90;;;;;;5038866;28;20447;-42
2021/08/28 08:33:47;;;;;;;7.47;3.53;;;16.50;99.90;;;;;;5039038;28;20497;-50
2021/08/28 08:36:15;;;;;;;3.80;3.30;;;16.50;99.90;;;;;;5038990;28;20506;-47
2021/08/28 08:38:42;;;;;;;4.27;3.20;;;16.60;99.90;;;;;;5038726;28;20968;-46
2021/08/28 08:41:09;;;;;;;4.93;4.43;;;16.60;99.90;;;;;;5038682;28;20444;-45
2021/08/28 08:43:36;;;;;;;4.30;3.77;;;16.60;99.90;;;;;;5038817;28;20521;-44
2021/08/28 08:46:03;;;;;;;4.47;3.73;;;16.60;99.90;;;;;;5038767;28;20444;-42
2021/08/28 08:48:33;;;;;;;3.93;3.53;;;16.60;99.90;;;;;;5038389;28;20520;-48
2021/08/28 08:51:00;;;;;;;5.60;3.30;;;16.60;99.90;;;;;;5038827;28;20549;-44
2021/08/28 08:53:30;;;;;;;5.30;4.03;;;16.60;99.90;;;;;;5038734;28;20464;-42
2021/08/28 08:55:58;;;;;;;5.00;3.57;;;16.70;99.90;;;;;;5038833;28;20436;-41
2021/08/28 08:58:25;;;;;;;5.93;4.13;;;16.80;99.90;;;;;;5038362;28;20460;-42
2021/08/28 09:00:52;;;;;;;3.93;3.30;;;16.90;99.90;;;;;;5038432;28;20509;-41
2021/08/28 09:03:18;;;;;;;4.63;2.93;;;17.00;99.90;;;;;;5037772;28;20843;-41
2021/08/28 09:05:45;;;;;;;4.37;3.50;;;17.20;99.90;;;;;;5038148;28;20932;-42
2021/08/28 09:08:12;;;;;;;4.80;3.90;;;17.30;99.90;;;;;;5038017;28;20526;-46
2021/08/28 09:10:40;;;;;;;5.37;3.57;;;17.40;99.90;;;;;;5038032;28;20480;-47
2021/08/28 09:13:17;;;;;;;5.33;3.20;;;17.40;99.90;;;;;;5037932;28;20479;-46
2021/08/28 09:15:45;;;;;;;3.80;2.50;;;17.40;99.90;;;;;;5038101;28;20455;-42
2021/08/28 09:18:13;;;;;;;3.30;2.80;;;17.40;99.90;;;;;;5038222;28;20550;-43
2021/08/28 09:20:40;;;;;;;4.20;3.70;;;17.30;99.90;;;;;;5037903;28;20445;-45
2021/08/28 09:23:09;;;;;;;4.97;3.67;;;17.30;99.90;;;;;;5038019;28;20459;-48
2021/08/28 09:25:38;;;;;;;3.07;2.70;;;17.30;99.90;;;;;;5038074;28;20796;-45
2021/08/28 09:28:06;;;;;;;3.30;2.40;;;17.40;99.90;;;;;;5037951;28;20909;-40
2021/08/28 09:30:39;;;;;;;5.07;2.70;;;17.40;99.90;;;;;;5037588;28;20932;-42
2021/08/28 09:33:09;;;;;;;6.73;3.40;;;17.50;99.90;;;;;;5037406;28;20518;-43
2021/08/28 09:35:36;;;;;;;3.10;2.43;;;17.50;99.90;;;;;;5037921;28;20451;-41
2021/08/28 09:38:05;;;;;;;4.03;2.10;;;17.60;99.90;;;;;;5037591;28;20460;-44
2021/08/28 09:40:34;;;;;;;4.80;2.57;;;17.60;99.90;;;;;;5037352;28;20458;-46
2021/08/28 09:43:03;;;;;;;4.57;2.83;;;17.60;99.90;;;;;;5037338;28;20567;-41
2021/08/28 09:45:32;;;;;;;6.10;3.23;;;17.50;99.90;;;;;;5037020;28;20490;-42
2021/08/28 09:47:58;;;;;;;4.77;2.87;;;17.50;99.90;;;;;;5037151;28;20468;-43
2021/08/28 09:50:27;;;;;;;4.40;3.10;;;17.50;99.90;;;;;;5036966;28;20490;-44
2021/08/28 09:52:54;;;;;;;3.73;2.80;;;17.50;99.90;;;;;;5037285;28;20506;-43
2021/08/28 09:55:21;;;;;;;3.73;3.00;;;17.50;99.90;;;;;;5037375;28;20749;-46
2021/08/28 09:57:51;;;;;;;3.90;2.33;;;17.50;99.90;;;;;;5037122;28;20444;-44
2021/08/28 10:00:17;;;;;;;3.87;3.20;;;17.50;99.90;;;;;;5037173;28;20472;-43
2021/08/28 10:02:56;;;;;;;3.77;3.27;;;17.50;99.90;;;;;;5036345;28;20967;-42
2021/08/28 10:05:26;;;;;;;4.43;2.70;;;17.60;99.90;;;;;;5037120;28;20443;-44
2021/08/28 10:07:55;;;;;;;7.10;3.60;;;17.70;99.90;;;;;;5037097;28;20451;-44
2021/08/28 10:10:22;;;;;;;3.37;2.67;;;17.90;99.90;;;;;;5036497;28;20499;-45
2021/08/28 10:12:49;;;;;;;4.10;2.97;;;18.00;99.90;;;;;;5037142;28;20464;-45
2021/08/28 10:15:17;;;;;;;4.73;3.50;;;18.20;99.90;;;;;;5036864;28;20834;-44
2021/08/28 10:17:44;;;;;;;4.07;2.77;;;18.50;99.90;;;;;;5036229;28;20563;-43
2021/08/28 10:20:13;;;;;;;5.70;3.30;;;18.90;99.90;;;;;;5036304;28;20521;-43
2021/08/28 10:22:42;;;;;;;3.73;3.30;;;19.30;99.90;;;;;;5035912;28;20517;-42
2021/08/28 10:25:12;;;;;;;3.30;3.00;;;19.60;99.90;;;;;;5035653;28;20448;-46
2021/08/28 10:27:40;;;;;;;4.30;3.33;;;20.00;99.90;;;;;;5035878;28;20563;-41
2021/08/28 10:30:09;;;;;;;4.40;3.60;;;20.10;99.90;;;;;;5035652;28;20875;-46
2021/08/28 10:32:36;;;;;;;4.20;2.63;;;20.10;99.90;;;;;;5035493;28;20452;-45
2021/08/28 10:35:03;;;;;;;3.00;2.47;;;20.00;99.90;;;;;;5035555;28;20841;-42
2021/08/28 10:37:32;;;;;;;3.00;2.70;;;19.90;99.90;;;;;;5035872;28;20559;-44
2021/08/28 10:39:59;;;;;;;3.20;2.70;;;19.70;99.90;;;;;;5035408;28;20449;-42
2021/08/28 10:42:31;;;;;;;3.40;3.10;;;19.50;99.90;;;;;;5035589;28;20510;-41
2021/08/28 10:45:01;;;;;;;3.73;2.70;;;19.40;99.90;;;;;;5035476;28;20440;-45
2021/08/28 10:47:29;;;;;;;5.20;2.93;;;19.30;99.90;;;;;;5035348;28;20494;-46
2021/08/28 10:49:57;;;;;;;4.30;3.60;;;19.30;99.90;;;;;;5035046;28;20484;-44
2021/08/28 10:52:26;;;;;;;4.40;3.63;;;19.30;99.90;;;;;;5035298;28;20451;-44
2021/08/28 10:54:58;;;;;;;6.60;2.90;;;19.30;99.90;;;;;;5035431;28;20828;-44
2021/08/28 10:57:28;;;;;;;5.43;3.37;;;19.40;99.90;;;;;;5035373;28;20456;-46
2021/08/28 11:00:04;;;;;;;3.13;2.83;;;19.50;99.90;;;;;;5035530;28;20750;-45
2021/08/28 11:02:54;;;;;;;6.10;2.80;;;19.80;99.90;;;;;;5035172;28;20452;-44
2021/08/28 11:05:23;;;;;;;4.13;3.10;;;20.10;99.90;;;;;;5035224;28;20436;-47
2021/08/28 11:07:51;;;;;;;3.10;2.80;;;20.30;99.90;;;;;;5034844;28;20451;-47
2021/08/28 11:10:21;;;;;;;2.97;2.63;;;20.30;99.90;;;;;;5035313;28;20921;-44
2021/08/28 11:12:54;;;;;;;4.23;2.87;;;20.20;99.90;;;;;;5035143;28;20434;-42
2021/08/28 11:15:53;;;;;;;3.27;2.70;;;20.10;99.90;;;;;;5035489;28;20468;-43
2021/08/28 11:18:46;;;;;;;3.43;2.57;;;20.10;99.90;;;;;;5035255;28;20461;-44
2021/08/28 11:21:13;;;;;;;3.90;2.83;;;20.20;99.90;;;;;;5035025;28;20483;-43
2021/08/28 11:23:47;;;;;;;3.37;2.60;;;20.30;99.90;;;;;;5034915;28;20514;-45
2021/08/28 11:26:33;;;;;;;3.80;2.90;;;20.30;99.90;;;;;;5034769;28;20511;-44
2021/08/28 11:28:59;;;;;;;3.30;2.90;;;20.50;99.90;;;;;;5034652;28;20923;-44
2021/08/28 11:31:45;;;;;;;2.87;2.47;;;20.60;99.90;;;;;;5035191;28;20542;-43
2021/08/28 11:34:11;;;;;;;8.63;5.80;;;20.70;99.90;;;;;;5035218;28;20433;-47
2021/08/28 11:36:38;;;;;;;15.17;10.07;;;20.70;99.90;;;;;;5034436;28;20467;-47
2021/08/28 11:39:21;;;;;;;5.37;3.40;;;20.70;99.90;;;;;;5034529;28;20502;-42
2021/08/28 11:41:49;;;;;;;2.90;2.60;;;20.70;99.90;;;;;;5034303;28;20514;-43
2021/08/28 11:44:16;;;;;;;3.77;3.47;;;20.70;99.90;;;;;;5036873;28;20456;-46
2021/08/28 11:46:47;;;;;;;3.00;2.37;;;20.60;99.90;;;;;;5038735;28;20509;-42
2021/08/28 11:49:14;;;;;;;3.23;2.93;;;20.70;99.90;;;;;;5038486;28;20471;-42
2021/08/28 11:51:41;;;;;;;3.80;3.30;;;20.80;99.90;;;;;;5038740;28;20487;-45
2021/08/28 11:54:10;;;;;;;8.17;5.87;;;20.80;99.90;;;;;;5039096;28;20460;-41
2021/08/28 11:56:37;;;;;;;5.20;3.27;;;20.90;99.90;;;;;;5038442;28;20913;-43
2021/08/28 11:59:07;;;;;;;3.70;2.30;;;20.90;99.90;;;;;;5038443;28;20513;-46
2021/08/28 12:01:36;;;;;;;2.87;2.57;;;20.90;99.90;;;;;;5038892;28;20448;-46
2021/08/28 12:04:05;;;;;;;4.57;2.93;;;20.90;99.90;;;;;;5039410;28;20456;-45
2021/08/28 12:06:33;;;;;;;4.67;2.50;;;21.10;99.90;;;;;;5038683;28;20505;-42
2021/08/28 12:09:00;;;;;;;2.50;2.00;;;21.30;99.90;;;;;;5038796;28;20475;-48
2021/08/28 12:11:27;;;;;;;1.93;1.50;;;21.30;99.90;;;;;;5038293;28;20561;-49
2021/08/28 12:13:56;;;;;;;2.30;1.50;;;21.40;99.90;;;;;;5038436;28;20475;-46
2021/08/28 12:16:26;;;;;;;2.20;1.83;;;21.50;99.90;;;;;;5038111;28;20452;-45
2021/08/28 12:19:07;;;;;;;4.13;1.83;;;21.60;99.90;;;;;;5038270;28;20459;-45
2021/08/28 12:21:36;;;;;;;1.80;1.63;;;21.60;99.90;;;;;;5038398;28;20486;-47
2021/08/28 12:24:18;;;;;;;2.07;1.83;;;21.60;99.90;;;;;;5037803;28;20769;-45
2021/08/28 12:26:49;;;;;;;2.60;2.00;;;21.80;99.90;;;;;;5037837;28;20475;-45
2021/08/28 12:29:25;;;;;;;2.00;1.80;;;21.80;99.90;;;;;;5038060;28;20500;-48
2021/08/28 12:31:58;;;;;;;3.00;1.90;;;21.80;99.90;;;;;;5037689;28;20483;-49
2021/08/28 12:34:28;;;;;;;2.60;1.90;;;21.80;99.90;;;;;;5037858;28;20444;-47
2021/08/28 12:36:55;;;;;;;2.13;1.80;;;21.90;99.90;;;;;;5038505;28;20518;-46
2021/08/28 12:39:22;;;;;;;3.20;1.70;;;22.00;99.90;;;;;;5037471;28;20452;-42
2021/08/28 12:41:49;;;;;;;2.53;2.07;;;22.00;99.90;;;;;;5037874;28;20526;-47
2021/08/28 12:44:17;;;;;;;2.40;2.20;;;22.00;99.90;;;;;;5037726;28;20448;-42
2021/08/28 12:46:47;;;;;;;2.80;2.43;;;22.00;99.90;;;;;;5037693;28;20440;-45
2021/08/28 12:49:18;;;;;;;2.20;1.90;;;22.10;99.90;;;;;;5037791;28;20490;-46
2021/08/28 12:51:50;;;;;;;1.87;1.57;;;22.20;99.90;;;;;;5037373;28;20533;-47